Time;durP1;ratioP1;P1;durP2;ratioP2;P2;SDS_P1;SDS_P2;PMS_P1;PMS_P2;Temp;Humidity;BMP_temperature;BMP_pressure;BME280_temperature;BME280_humidity;BME280_pressure;Samples;Min_cycle;Max_cycle;Signal;HPM_P1;HPM_P2
2022/05/25 00:02:01;;;;;;;0.20;0.20;;;;;;;;;;5043545;28;20036;-89
2022/05/25 00:04:28;;;;;;;0.20;0.20;;;;;;;;;;5044374;28;20072;-88
2022/05/25 00:06:54;;;;;;;0.30;0.30;;;;;;;;;;5043689;28;20043;-89
2022/05/25 00:09:21;;;;;;;0.28;0.28;;;;;;;;;;5059551;28;20512;-88
2022/05/25 00:11:47;;;;;;;0.10;0.10;;;;;;;;;;5059987;28;20051;-89
2022/05/25 00:14:13;;;;;;;0.10;0.10;;;;;;;;;;5043324;28;20040;-88
2022/05/25 00:16:39;;;;;;;0.20;0.20;;;;;;;;;;5042935;28;20101;-89
2022/05/25 00:21:50;;;;;;;0.10;0.10;;;;;;;;;;5059981;28;20054;-89
2022/05/25 00:24:16;;;;;;;0.20;0.20;;;;;;;;;;5043522;28;20062;-88
2022/05/25 00:26:42;;;;;;;0.20;0.20;;;;;;;;;;5043070;28;20049;-88
2022/05/25 00:29:08;;;;;;;0.10;0.10;;;;;;;;;;5043554;28;20077;-88
2022/05/25 00:31:36;;;;;;;0.17;0.17;;;;;;;;;;5057309;28;20041;-88
2022/05/25 00:34:02;;;;;;;0.22;0.22;;;;;;;;;;5040954;28;20036;-88
2022/05/25 00:36:28;;;;;;;0.20;0.20;;;;;;;;;;5043630;28;20086;-88
2022/05/25 00:38:54;;;;;;;0.20;0.20;;;;;;;;;;5043861;28;20040;-87
2022/05/25 00:41:25;;;;;;;0.20;0.20;;;;;;;;;;5043148;28;20072;-88
2022/05/25 00:43:51;;;;;;;0.20;0.20;;;;;;;;;;5043138;28;20128;-87
2022/05/25 00:46:18;;;;;;;0.20;0.20;;;;;;;;;;5042782;28;20165;-88
2022/05/25 00:48:45;;;;;;;0.20;0.20;;;;;;;;;;5042949;28;20127;-88
2022/05/25 00:51:15;;;;;;;0.20;0.20;;;;;;;;;;5042544;28;20082;-88
2022/05/25 00:53:42;;;;;;;0.20;0.20;;;;;;;;;;5043312;28;20227;-88
2022/05/25 00:56:08;;;;;;;0.13;0.13;;;;;;;;;;5060794;28;20037;-88
2022/05/25 00:58:35;;;;;;;0.10;0.10;;;;;;;;;;5042858;28;20071;-88
2022/05/25 01:01:01;;;;;;;0.20;0.20;;;;;;;;;;5042217;28;20047;-87
2022/05/25 01:03:28;;;;;;;0.20;0.20;;;;;;;;;;5042488;28;20045;-88
2022/05/25 01:05:59;;;;;;;0.30;0.30;;;;;;;;;;5042072;28;20044;-88
2022/05/25 01:08:31;;;;;;;0.20;0.20;;;;;;;;;;5042851;28;20127;-88
2022/05/25 01:11:10;;;;;;;0.10;0.10;;;;;;;;;;5043393;28;20036;-88
2022/05/25 01:13:43;;;;;;;0.30;0.30;;;;;;;;;;5059329;28;20054;-88
2022/05/25 01:16:16;;;;;;;0.20;0.20;;;;;;;;;;5042380;28;20042;-89
2022/05/25 01:18:47;;;;;;;0.20;0.20;;;;;;;;;;5042630;28;20547;-88
2022/05/25 01:21:20;;;;;;;0.20;0.20;;;;;;;;;;5035935;28;20094;-87
2022/05/25 01:23:53;;;;;;;0.20;0.20;;;;;;;;;;5042968;28;20048;-88
2022/05/25 01:26:25;;;;;;;0.10;0.10;;;;;;;;;;5041576;28;20037;-89
2022/05/25 01:29:03;;;;;;;0.10;0.10;;;;;;;;;;5042017;28;20041;-88
2022/05/25 01:31:38;;;;;;;0.20;0.20;;;;;;;;;;5041866;28;20107;-88
2022/05/25 01:34:13;;;;;;;0.20;0.20;;;;;;;;;;5058949;28;20036;-88
2022/05/25 01:36:39;;;;;;;0.10;0.10;;;;;;;;;;5041684;28;20119;-88
2022/05/25 01:39:07;;;;;;;0.15;0.15;;;;;;;;;;5042149;28;20037;-88
2022/05/25 01:41:42;;;;;;;0.30;0.30;;;;;;;;;;5041858;28;20374;-88
2022/05/25 01:44:16;;;;;;;0.25;0.25;;;;;;;;;;5041838;28;20515;-88
2022/05/25 01:46:44;;;;;;;0.20;0.20;;;;;;;;;;5035489;28;20056;-88
2022/05/25 01:49:13;;;;;;;0.20;0.20;;;;;;;;;;5058409;28;20044;-88
2022/05/25 01:51:41;;;;;;;0.20;0.20;;;;;;;;;;5042121;28;20044;-88
2022/05/25 01:54:08;;;;;;;0.20;0.20;;;;;;;;;;5058742;28;20054;-89
2022/05/25 01:56:36;;;;;;;0.30;0.30;;;;;;;;;;5042252;28;20040;-88
2022/05/25 01:59:03;;;;;;;0.28;0.28;;;;;;;;;;5042118;28;20068;-88
2022/05/25 02:01:30;;;;;;;0.10;0.10;;;;;;;;;;5041554;28;20036;-88
2022/05/25 02:06:48;;;;;;;0.10;0.10;;;;;;;;;;5058007;28;20052;-88
2022/05/25 02:09:14;;;;;;;0.20;0.20;;;;;;;;;;5046027;28;20123;-88
2022/05/25 02:11:45;;;;;;;0.20;0.20;;;;;;;;;;5044991;28;20084;-88
2022/05/25 02:14:27;;;;;;;0.10;0.10;;;;;;;;;;5045897;28;20036;-89
2022/05/25 02:17:02;;;;;;;0.28;0.28;;;;;;;;;;5045774;28;20036;-90
2022/05/25 02:19:54;;;;;;;0.20;0.20;;;;;;;;;;5045214;28;20041;-89
2022/05/25 02:22:36;;;;;;;0.13;0.13;;;;;;;;;;5041213;28;20506;-88
2022/05/25 02:25:12;;;;;;;0.30;0.30;;;;;;;;;;5048991;28;20055;-89
2022/05/25 02:28:04;;;;;;;0.10;0.10;;;;;;;;;;5067356;28;20502;-88
2022/05/25 02:30:32;;;;;;;0.20;0.20;;;;;;;;;;5036088;28;20052;-88
2022/05/25 02:33:01;;;;;;;0.20;0.20;;;;;;;;;;5044740;28;20056;-89
2022/05/25 02:35:28;;;;;;;0.20;0.20;;;;;;;;;;5061609;28;20129;-87
2022/05/25 02:37:57;;;;;;;0.20;0.20;;;;;;;;;;5028830;28;20562;-89
2022/05/25 02:40:23;;;;;;;0.20;0.20;;;;;;;;;;5044762;28;20120;-88
2022/05/25 02:42:49;;;;;;;0.30;0.30;;;;;;;;;;5044630;28;20091;-88
2022/05/25 02:45:15;;;;;;;0.30;0.30;;;;;;;;;;5060863;28;20044;-87
2022/05/25 02:47:41;;;;;;;0.10;0.10;;;;;;;;;;5043434;28;20087;-88
2022/05/25 02:50:07;;;;;;;0.17;0.17;;;;;;;;;;5044264;28;20044;-87
2022/05/25 02:52:34;;;;;;;0.30;0.30;;;;;;;;;;5059528;28;20045;-87
2022/05/25 02:55:00;;;;;;;0.25;0.25;;;;;;;;;;5044155;28;20028;-88
2022/05/25 02:57:26;;;;;;;0.20;0.20;;;;;;;;;;5044155;28;20036;-87
2022/05/25 02:59:52;;;;;;;0.20;0.20;;;;;;;;;;5042505;28;20044;-87
2022/05/25 03:02:17;;;;;;;0.10;0.10;;;;;;;;;;5043336;28;20037;-87
2022/05/25 03:04:44;;;;;;;0.13;0.13;;;;;;;;;;5043668;28;20070;-88
2022/05/25 03:07:10;;;;;;;0.20;0.20;;;;;;;;;;5044286;28;20143;-88
2022/05/25 03:09:36;;;;;;;0.10;0.10;;;;;;;;;;5044505;28;20394;-88
2022/05/25 03:12:03;;;;;;;0.20;0.20;;;;;;;;;;5060668;28;20104;-88
2022/05/25 03:14:30;;;;;;;0.20;0.20;;;;;;;;;;5044400;28;20032;-87
2022/05/25 03:16:57;;;;;;;0.20;0.20;;;;;;;;;;5043641;28;20037;-88
2022/05/25 03:19:23;;;;;;;0.10;0.10;;;;;;;;;;5044259;28;20041;-88
2022/05/25 03:21:49;;;;;;;0.20;0.20;;;;;;;;;;5043792;28;20047;-88
2022/05/25 03:24:16;;;;;;;0.30;0.30;;;;;;;;;;5060325;28;20044;-86
2022/05/25 03:26:43;;;;;;;0.20;0.20;;;;;;;;;;5043686;28;20098;-88
2022/05/25 03:29:11;;;;;;;0.13;0.13;;;;;;;;;;5043102;28;20386;-87
2022/05/25 03:31:38;;;;;;;0.30;0.30;;;;;;;;;;5060760;28;20041;-88
2022/05/25 03:34:04;;;;;;;0.20;0.20;;;;;;;;;;5043524;28;20033;-87
2022/05/25 03:36:31;;;;;;;0.20;0.20;;;;;;;;;;5043455;28;20047;-85
2022/05/25 03:38:57;;;;;;;0.20;0.20;;;;;;;;;;5043479;28;20037;-88
2022/05/25 03:41:23;;;;;;;0.20;0.20;;;;;;;;;;5043739;28;20040;-87
2022/05/25 03:43:49;;;;;;;0.20;0.20;;;;;;;;;;5043555;28;20166;-88
2022/05/25 03:46:15;;;;;;;0.20;0.20;;;;;;;;;;5043510;28;20607;-87
2022/05/25 03:48:41;;;;;;;0.20;0.20;;;;;;;;;;5043426;28;20091;-88
2022/05/25 03:51:07;;;;;;;0.10;0.10;;;;;;;;;;5044036;28;20038;-88
2022/05/25 03:53:33;;;;;;;0.10;0.10;;;;;;;;;;5043593;28;20055;-88
2022/05/25 03:56:00;;;;;;;0.20;0.20;;;;;;;;;;5043570;28;20512;-87
2022/05/25 03:58:26;;;;;;;0.30;0.30;;;;;;;;;;5043345;28;20051;-87
2022/05/25 04:00:52;;;;;;;0.20;0.20;;;;;;;;;;5042823;28;20047;-87
2022/05/25 04:03:18;;;;;;;0.10;0.10;;;;;;;;;;5036410;28;20044;-88
2022/05/25 04:05:44;;;;;;;0.20;0.20;;;;;;;;;;5060230;28;20062;-88
2022/05/25 04:08:10;;;;;;;0.10;0.10;;;;;;;;;;5043620;28;20032;-88
2022/05/25 04:10:36;;;;;;;0.10;0.10;;;;;;;;;;5043377;28;20052;-88
2022/05/25 04:13:03;;;;;;;0.20;0.20;;;;;;;;;;5043818;28;20398;-88
2022/05/25 04:15:30;;;;;;;0.20;0.20;;;;;;;;;;5042431;28;20486;-88
2022/05/25 04:17:56;;;;;;;0.22;0.22;;;;;;;;;;5042821;28;20037;-87
2022/05/25 04:20:24;;;;;;;0.17;0.17;;;;;;;;;;5043237;28;20032;-87
2022/05/25 04:22:54;;;;;;;0.10;0.10;;;;;;;;;;5043078;28;20123;-88
2022/05/25 04:25:21;;;;;;;0.20;0.20;;;;;;;;;;5042220;28;20041;-85
2022/05/25 04:27:48;;;;;;;0.10;0.10;;;;;;;;;;5059423;28;20040;-88
2022/05/25 04:30:15;;;;;;;0.10;0.10;;;;;;;;;;5058999;28;20056;-87
2022/05/25 04:32:43;;;;;;;0.20;0.20;;;;;;;;;;5042539;28;20102;-87
2022/05/25 04:35:09;;;;;;;0.52;0.52;;;;;;;;;;5038325;28;20477;-87
2022/05/25 04:37:54;;;;;;;0.30;0.30;;;;;;;;;;5041949;28;20043;-88
2022/05/25 04:40:23;;;;;;;0.10;0.10;;;;;;;;;;5038728;28;20040;-88
2022/05/25 04:42:50;;;;;;;0.30;0.30;;;;;;;;;;5042355;28;20110;-88
2022/05/25 04:45:17;;;;;;;0.13;0.13;;;;;;;;;;5042395;28;20036;-88
2022/05/25 04:47:43;;;;;;;0.20;0.20;;;;;;;;;;5041536;28;20048;-87
2022/05/25 04:50:10;;;;;;;0.20;0.20;;;;;;;;;;5042404;28;20048;-88
2022/05/25 04:52:37;;;;;;;0.20;0.20;;;;;;;;;;5041997;28;20039;-88
2022/05/25 04:55:07;;;;;;;0.30;0.30;;;;;;;;;;5042252;28;20044;-88
2022/05/25 04:57:34;;;;;;;0.10;0.10;;;;;;;;;;5059349;28;20032;-88
2022/05/25 05:00:01;;;;;;;0.20;0.20;;;;;;;;;;5041890;28;20041;-87
2022/05/25 05:02:29;;;;;;;0.10;0.10;;;;;;;;;;5058985;28;20697;-87
2022/05/25 05:04:55;;;;;;;0.10;0.10;;;;;;;;;;5041854;28;20041;-87
2022/05/25 05:07:28;;;;;;;0.10;0.10;;;;;;;;;;5041012;28;20040;-88
2022/05/25 05:09:55;;;;;;;0.20;0.20;;;;;;;;;;5041860;28;20170;-88
2022/05/25 05:12:21;;;;;;;0.20;0.20;;;;;;;;;;5041490;28;20082;-88
2022/05/25 05:14:47;;;;;;;0.13;0.13;;;;;;;;;;5041742;28;20067;-88
2022/05/25 05:17:13;;;;;;;0.20;0.20;;;;;;;;;;5040672;28;20028;-87
2022/05/25 05:19:40;;;;;;;0.20;0.20;;;;;;;;;;5041433;28;20094;-89
2022/05/25 05:22:06;;;;;;;0.10;0.10;;;;;;;;;;5059469;28;20552;-89
2022/05/25 05:24:32;;;;;;;0.20;0.20;;;;;;;;;;5045786;28;20028;-89
2022/05/25 05:26:58;;;;;;;0.13;0.13;;;;;;;;;;5058423;28;20059;-88
2022/05/25 05:29:26;;;;;;;0.10;0.10;;;;;;;;;;5040201;28;20089;-89
2022/05/25 05:31:52;;;;;;;1.95;1.23;;;;;;;;;;5040720;28;20037;-87
2022/05/25 05:34:18;;;;;;;0.10;0.10;;;;;;;;;;5036017;28;20029;-88
2022/05/25 05:36:52;;;;;;;0.20;0.20;;;;;;;;;;5036094;28;20048;-87
2022/05/25 05:39:19;;;;;;;0.30;0.30;;;;;;;;;;5033441;28;20032;-87
2022/05/25 05:41:52;;;;;;;0.22;0.22;;;;;;;;;;5036958;28;20044;-88
2022/05/25 05:44:20;;;;;;;0.30;0.30;;;;;;;;;;5037003;28;20177;-87
2022/05/25 05:46:47;;;;;;;0.20;0.20;;;;;;;;;;5034475;28;20561;-88
2022/05/25 05:49:13;;;;;;;0.30;0.30;;;;;;;;;;5022523;28;20036;-88
2022/05/25 05:51:40;;;;;;;0.17;0.17;;;;;;;;;;5037907;28;20244;-88
2022/05/25 05:54:06;;;;;;;0.10;0.10;;;;;;;;;;5056315;28;20039;-88
2022/05/25 05:56:33;;;;;;;0.05;0.05;;;;;;;;;;5038026;28;20037;-87
2022/05/25 05:59:01;;;;;;;0.10;0.10;;;;;;;;;;5036973;28;20115;-89
2022/05/25 06:01:28;;;;;;;0.20;0.20;;;;;;;;;;5052802;28;20044;-88
2022/05/25 06:03:54;;;;;;;0.10;0.10;;;;;;;;;;5036416;28;20095;-88
2022/05/25 06:06:19;;;;;;;0.10;0.10;;;;;;;;;;5038607;28;20037;-87
2022/05/25 06:08:49;;;;;;;0.10;0.10;;;;;;;;;;5039985;28;20536;-88
2022/05/25 06:11:15;;;;;;;0.10;0.10;;;;;;;;;;5039351;28;20039;-88
2022/05/25 06:13:41;;;;;;;0.10;0.10;;;;;;;;;;5031981;28;20477;-88
2022/05/25 06:21:37;;;;;;;0.20;0.20;;;;;;;;;;5054581;28;20044;-88
2022/05/25 06:24:03;;;;;;;0.22;0.22;;;;;;;;;;5039824;28;20047;-88
2022/05/25 06:26:30;;;;;;;0.10;0.10;;;;;;;;;;5040153;28;20096;-88
2022/05/25 06:29:01;;;;;;;0.20;0.20;;;;;;;;;;5040387;28;20513;-87
2022/05/25 06:31:27;;;;;;;0.10;0.10;;;;;;;;;;5040495;28;20045;-88
2022/05/25 06:33:54;;;;;;;0.10;0.10;;;;;;;;;;5039832;28;20477;-88
2022/05/25 06:36:27;;;;;;;0.20;0.20;;;;;;;;;;5040849;28;20040;-88
2022/05/25 06:38:54;;;;;;;0.08;0.08;;;;;;;;;;5039800;28;20046;-88
2022/05/25 06:41:20;;;;;;;0.30;0.30;;;;;;;;;;5057163;28;20036;-89
2022/05/25 06:43:47;;;;;;;0.20;0.20;;;;;;;;;;5039435;28;20469;-90
2022/05/25 06:46:21;;;;;;;0.20;0.20;;;;;;;;;;5039115;28;20041;-88
2022/05/25 06:48:50;;;;;;;0.08;0.08;;;;;;;;;;5040847;28;20043;-88
2022/05/25 06:51:21;;;;;;;0.22;0.22;;;;;;;;;;5043824;28;20036;-88
2022/05/25 06:53:47;;;;;;;0.10;0.10;;;;;;;;;;5038278;28;20044;-88
2022/05/25 06:56:13;;;;;;;0.10;0.10;;;;;;;;;;5042993;28;20035;-88
2022/05/25 06:58:39;;;;;;;0.10;0.10;;;;;;;;;;5043404;28;20070;-88
2022/05/25 07:01:05;;;;;;;0.10;0.10;;;;;;;;;;5042867;28;20485;-88
2022/05/25 07:03:32;;;;;;;0.00;0.00;;;;;;;;;;5043572;28;20691;-88
2022/05/25 07:05:59;;;;;;;0.10;0.10;;;;;;;;;;5042542;28;20119;-88
2022/05/25 07:08:25;;;;;;;0.15;0.15;;;;;;;;;;5043175;28;20036;-88
2022/05/25 07:10:51;;;;;;;0.20;0.20;;;;;;;;;;5043724;28;20060;-88
2022/05/25 07:13:17;;;;;;;0.10;0.10;;;;;;;;;;5043180;28;20413;-88
2022/05/25 07:15:44;;;;;;;0.10;0.10;;;;;;;;;;5043343;28;20405;-87
2022/05/25 07:18:11;;;;;;;0.20;0.20;;;;;;;;;;5042567;28;20028;-87
2022/05/25 07:20:37;;;;;;;0.10;0.10;;;;;;;;;;5043254;28;20389;-88
2022/05/25 07:23:03;;;;;;;0.10;0.10;;;;;;;;;;5043643;28;20043;-86
2022/05/25 07:25:29;;;;;;;0.10;0.10;;;;;;;;;;5043003;28;20116;-88
2022/05/25 07:27:55;;;;;;;0.10;0.10;;;;;;;;;;5043536;28;20043;-87
2022/05/25 07:30:21;;;;;;;0.10;0.10;;;;;;;;;;5042804;28;20040;-87
2022/05/25 07:32:48;;;;;;;0.20;0.20;;;;;;;;;;5043209;28;20036;-87
2022/05/25 07:35:15;;;;;;;0.20;0.20;;;;;;;;;;5043284;28;20512;-88
2022/05/25 07:37:42;;;;;;;0.50;0.50;;;;;;;;;;5044121;28;20048;-88
2022/05/25 07:40:08;;;;;;;0.20;0.20;;;;;;;;;;5042888;28;20036;-87
2022/05/25 07:42:35;;;;;;;0.10;0.10;;;;;;;;;;5042154;28;20398;-90
2022/05/25 07:45:03;;;;;;;0.10;0.10;;;;;;;;;;5042014;28;20551;-88
2022/05/25 07:47:30;;;;;;;0.10;0.10;;;;;;;;;;5042617;28;20071;-88
2022/05/25 07:49:56;;;;;;;0.10;0.10;;;;;;;;;;5038654;28;20040;-88
2022/05/25 07:52:24;;;;;;;0.10;0.10;;;;;;;;;;5042347;28;20037;-86
2022/05/25 07:54:50;;;;;;;0.00;0.00;;;;;;;;;;5041448;28;20482;-88
2022/05/25 07:57:16;;;;;;;0.10;0.10;;;;;;;;;;5041706;28;20033;-87
2022/05/25 07:59:42;;;;;;;0.10;0.10;;;;;;;;;;5041347;28;20516;-88
2022/05/25 08:07:50;;;;;;;0.00;0.00;;;;;;;;;;5053673;28;20484;-87
2022/05/25 08:10:17;;;;;;;0.00;0.00;;;;;;;;;;5042243;28;20059;-88
2022/05/25 08:12:44;;;;;;;0.25;0.25;;;;;;;;;;5041931;28;20064;-88
2022/05/25 08:15:11;;;;;;;0.10;0.10;;;;;;;;;;5042073;28;20036;-86
2022/05/25 08:17:37;;;;;;;0.08;0.08;;;;;;;;;;5041991;28;20043;-87
2022/05/25 08:20:04;;;;;;;0.10;0.10;;;;;;;;;;5041652;28;20032;-87
2022/05/25 08:22:30;;;;;;;0.10;0.10;;;;;;;;;;5037444;28;20041;-86
2022/05/25 08:24:57;;;;;;;0.00;0.00;;;;;;;;;;5032315;28;20044;-87
2022/05/25 08:27:24;;;;;;;0.20;0.20;;;;;;;;;;5034781;28;20071;-89
2022/05/25 08:30:02;;;;;;;0.10;0.10;;;;;;;;;;5039394;28;20131;-90
2022/05/25 08:32:28;;;;;;;0.00;0.00;;;;;;;;;;5037537;28;20037;-88
2022/05/25 08:34:54;;;;;;;0.20;0.20;;;;;;;;;;5049981;28;20060;-88
2022/05/25 08:37:20;;;;;;;0.10;0.10;;;;;;;;;;5040923;28;20093;-88
2022/05/25 08:39:46;;;;;;;0.10;0.10;;;;;;;;;;5036775;28;20041;-88
2022/05/25 08:42:14;;;;;;;0.10;0.10;;;;;;;;;;5031045;28;20147;-90
2022/05/25 08:44:41;;;;;;;0.00;0.00;;;;;;;;;;5015888;28;20082;-88
2022/05/25 08:47:08;;;;;;;0.10;0.10;;;;;;;;;;5044636;28;20040;-88
2022/05/25 08:49:35;;;;;;;0.20;0.20;;;;;;;;;;5035159;28;20047;-86
2022/05/25 08:52:02;;;;;;;0.10;0.10;;;;;;;;;;5029616;28;20044;-86
2022/05/25 08:54:29;;;;;;;0.00;0.00;;;;;;;;;;5034216;28;20489;-86
2022/05/25 08:57:03;;;;;;;0.10;0.10;;;;;;;;;;5033829;28;20033;-85
2022/05/25 08:59:38;;;;;;;0.03;0.03;;;;;;;;;;5058280;28;20063;-86
2022/05/25 09:02:23;;;;;;;0.10;0.10;;;;;;;;;;5040922;28;20041;-87
2022/05/25 09:04:53;;;;;;;0.10;0.10;;;;;;;;;;5036671;28;20055;-86
2022/05/25 09:07:30;;;;;;;0.10;0.10;;;;;;;;;;5037370;28;20055;-90
2022/05/25 09:10:20;;;;;;;0.20;0.20;;;;;;;;;;5037112;28;20041;-91
2022/05/25 09:13:02;;;;;;;0.00;0.00;;;;;;;;;;5051833;28;20065;-89
2022/05/25 09:15:30;;;;;;;0.10;0.10;;;;;;;;;;5040485;28;20029;-90
2022/05/25 09:18:09;;;;;;;0.10;0.10;;;;;;;;;;5039089;28;20040;-88
2022/05/25 09:20:46;;;;;;;0.03;0.03;;;;;;;;;;5032396;28;20486;-87
2022/05/25 09:23:12;;;;;;;0.10;0.10;;;;;;;;;;5046313;28;20037;-86
2022/05/25 09:25:38;;;;;;;0.00;0.00;;;;;;;;;;5035053;28;20119;-86
2022/05/25 09:28:12;;;;;;;0.10;0.10;;;;;;;;;;5029325;28;20086;-86
2022/05/25 09:30:40;;;;;;;0.10;0.10;;;;;;;;;;5032293;28;20139;-87
2022/05/25 09:33:25;;;;;;;0.10;0.10;;;;;;;;;;5032193;28;20033;-87
2022/05/25 09:35:58;;;;;;;0.35;0.35;;;;;;;;;;5029389;28;20038;-92
2022/05/25 09:38:35;;;;;;;0.00;0.00;;;;;;;;;;5046630;28;20052;-87
2022/05/25 09:41:04;;;;;;;0.10;0.10;;;;;;;;;;5056306;28;20037;-88
2022/05/25 09:43:33;;;;;;;0.08;0.08;;;;;;;;;;5037385;28;20049;-86
2022/05/25 09:46:04;;;;;;;0.10;0.10;;;;;;;;;;5033763;28;20067;-86
2022/05/25 09:48:31;;;;;;;0.20;0.20;;;;;;;;;;5038165;28;20047;-85
2022/05/25 09:50:57;;;;;;;0.10;0.10;;;;;;;;;;5031947;28;20056;-86
2022/05/25 09:53:25;;;;;;;0.00;0.00;;;;;;;;;;5036316;28;20036;-85
2022/05/25 09:55:52;;;;;;;0.10;0.10;;;;;;;;;;5038836;28;20426;-85
2022/05/25 09:58:29;;;;;;;0.10;0.10;;;;;;;;;;5031294;28;20120;-86
2022/05/25 10:01:04;;;;;;;0.10;0.10;;;;;;;;;;5046022;28;20033;-88
2022/05/25 10:03:35;;;;;;;0.10;0.10;;;;;;;;;;5026800;28;20033;-89
2022/05/25 10:06:16;;;;;;;0.10;0.10;;;;;;;;;;5039489;28;20041;-89
2022/05/25 10:11:53;;;;;;;0.10;0.10;;;;;;;;;;5045713;28;20071;-89
2022/05/25 10:14:25;;;;;;;0.10;0.10;;;;;;;;;;5034626;28;20047;-89
2022/05/25 10:16:52;;;;;;;0.10;0.10;;;;;;;;;;5038773;28;20032;-89
2022/05/25 10:19:19;;;;;;;0.10;0.10;;;;;;;;;;5045539;28;20032;-89
2022/05/25 10:22:12;;;;;;;0.10;0.10;;;;;;;;;;5038156;28;20396;-88
2022/05/25 10:24:41;;;;;;;0.00;0.00;;;;;;;;;;5027524;28;20083;-88
2022/05/25 10:27:21;;;;;;;0.08;0.08;;;;;;;;;;5041850;28;20443;-90
2022/05/25 10:38:14;;;;;;;0.10;0.10;;;;;;;;;;5056412;28;20033;-91
2022/05/25 10:40:46;;;;;;;0.10;0.10;;;;;;;;;;5042900;28;20452;-88
2022/05/25 10:43:17;;;;;;;0.15;0.15;;;;;;;;;;5037720;28;20088;-89
2022/05/25 10:45:51;;;;;;;0.10;0.10;;;;;;;;;;5041953;28;20044;-90
2022/05/25 10:48:18;;;;;;;0.10;0.10;;;;;;;;;;5037458;28;20044;-90
2022/05/25 10:50:51;;;;;;;0.00;0.00;;;;;;;;;;5037948;28;20405;-87
2022/05/25 10:53:29;;;;;;;0.10;0.10;;;;;;;;;;5057175;28;20062;-88
2022/05/25 10:55:59;;;;;;;0.03;0.03;;;;;;;;;;5040384;28;20037;-89
2022/05/25 10:58:25;;;;;;;0.00;0.00;;;;;;;;;;5044968;28;20473;-92
2022/05/25 11:01:23;;;;;;;0.10;0.10;;;;;;;;;;5037371;28;20033;-88
2022/05/25 11:04:04;;;;;;;0.03;0.03;;;;;;;;;;5046152;28;20121;-89
2022/05/25 11:06:42;;;;;;;0.00;0.00;;;;;;;;;;5061679;28;20043;-87
2022/05/25 11:09:50;;;;;;;0.10;0.10;;;;;;;;;;5058801;28;20060;-89
2022/05/25 11:12:35;;;;;;;0.00;0.00;;;;;;;;;;4977401;28;20046;-89
2022/05/25 11:15:06;;;;;;;0.10;0.10;;;;;;;;;;4993388;28;20060;-88
2022/05/25 11:17:49;;;;;;;0.00;0.00;;;;;;;;;;5013063;28;20056;-90
2022/05/25 11:20:34;;;;;;;0.10;0.10;;;;;;;;;;5056436;28;20044;-88
2022/05/25 11:23:19;;;;;;;0.20;0.20;;;;;;;;;;5056270;28;20048;-89
2022/05/25 11:26:03;;;;;;;0.00;0.00;;;;;;;;;;5046292;28;20139;-89
2022/05/25 11:28:48;;;;;;;0.00;0.00;;;;;;;;;;5042071;28;20036;-88
2022/05/25 11:31:23;;;;;;;0.00;0.00;;;;;;;;;;5046489;28;20071;-90
2022/05/25 11:33:50;;;;;;;;;;;;;;;;;;5058620;28;20044;-89
2022/05/25 11:36:37;;;;;;;0.05;0.05;;;;;;;;;;5038784;28;19922;-89
2022/05/25 11:39:21;;;;;;;0.10;0.10;;;;;;;;;;5040090;28;20127;-88
2022/05/25 11:42:01;;;;;;;0.10;0.10;;;;;;;;;;5043976;28;20444;-88
2022/05/25 11:44:46;;;;;;;0.00;0.00;;;;;;;;;;5035814;28;20044;-86
2022/05/25 11:47:15;;;;;;;0.10;0.10;;;;;;;;;;5055359;28;20104;-89
2022/05/25 11:49:54;;;;;;;0.10;0.10;;;;;;;;;;5045095;28;20567;-89
2022/05/25 11:52:21;;;;;;;0.10;0.10;;;;;;;;;;5045061;28;20037;-88
2022/05/25 11:54:47;;;;;;;0.10;0.10;;;;;;;;;;5039954;28;20040;-88
2022/05/25 11:57:35;;;;;;;0.10;0.10;;;;;;;;;;5041368;28;20856;-88
2022/05/25 12:00:23;;;;;;;0.00;0.00;;;;;;;;;;5069694;28;20505;-89
2022/05/25 12:02:49;;;;;;;;;;;;;;;;;;5056150;28;20044;-89
2022/05/25 12:05:23;;;;;;;0.00;0.00;;;;;;;;;;5039974;28;20369;-90
2022/05/25 12:07:55;;;;;;;0.00;0.00;;;;;;;;;;5052207;28;20037;-87
2022/05/25 12:10:38;;;;;;;0.00;0.00;;;;;;;;;;5036931;28;20075;-91
2022/05/25 12:13:07;;;;;;;0.00;0.00;;;;;;;;;;5037686;28;20032;-91
2022/05/25 12:15:36;;;;;;;0.00;0.00;;;;;;;;;;5040528;28;20051;-91
2022/05/25 12:18:02;;;;;;;0.08;0.08;;;;;;;;;;5038553;28;20478;-89
2022/05/25 12:23:29;;;;;;;0.10;0.10;;;;;;;;;;5055732;28;20048;-91
2022/05/25 12:25:58;;;;;;;0.10;0.10;;;;;;;;;;5036485;28;20064;-91
2022/05/25 12:28:25;;;;;;;0.10;0.10;;;;;;;;;;5062144;28;20037;-93
2022/05/25 12:30:54;;;;;;;0.10;0.10;;;;;;;;;;5045960;28;20040;-91
2022/05/25 12:33:23;;;;;;;0.10;0.10;;;;;;;;;;5059922;28;20067;-91
2022/05/25 12:35:49;;;;;;;0.00;0.00;;;;;;;;;;5040306;28;20069;-95
2022/05/25 12:38:18;;;;;;;0.00;0.00;;;;;;;;;;5027528;28;20052;-93
2022/05/25 12:40:46;;;;;;;0.10;0.10;;;;;;;;;;5045167;28;20444;-94
2022/05/25 12:43:45;;;;;;;0.10;0.10;;;;;;;;;;5048609;28;20056;-92
2022/05/25 12:48:57;;;;;;;0.20;0.20;;;;;;;;;;5067031;28;20497;-91
2022/05/25 12:51:39;;;;;;;0.13;0.13;;;;;;;;;;5049040;28;20059;-93
2022/05/25 12:54:21;;;;;;;0.10;0.10;;;;;;;;;;5064237;28;20048;-90
2022/05/25 12:56:47;;;;;;;0.00;0.00;;;;;;;;;;5055639;28;20046;-92
2022/05/25 12:59:24;;;;;;;0.05;0.05;;;;;;;;;;5044849;28;20043;-89
2022/05/25 13:02:06;;;;;;;0.00;0.00;;;;;;;;;;5051234;28;20045;-90
2022/05/25 13:04:46;;;;;;;0.08;0.08;;;;;;;;;;5045761;28;20036;-91
2022/05/25 13:07:21;;;;;;;0.00;0.00;;;;;;;;;;5048627;28;20153;-95
2022/05/25 13:09:48;;;;;;;0.10;0.10;;;;;;;;;;5029593;28;20550;-88
2022/05/25 13:12:33;;;;;;;0.10;0.10;;;;;;;;;;5060163;28;20086;-91
2022/05/25 13:14:59;;;;;;;0.10;0.10;;;;;;;;;;5043386;28;20040;-90
2022/05/25 13:17:40;;;;;;;0.00;0.00;;;;;;;;;;5043945;28;20064;-93
2022/05/25 13:20:07;;;;;;;0.05;0.05;;;;;;;;;;5043494;28;20122;-92
2022/05/25 13:22:33;;;;;;;0.00;0.00;;;;;;;;;;5042024;28;20064;-89
2022/05/25 13:25:15;;;;;;;0.00;0.00;;;;;;;;;;5044102;28;20068;-92
2022/05/25 13:28:02;;;;;;;0.00;0.00;;;;;;;;;;5056792;28;20413;-91
2022/05/25 13:30:30;;;;;;;0.00;0.00;;;;;;;;;;5035395;28;20040;-85
2022/05/25 13:33:01;;;;;;;0.00;0.00;;;;;;;;;;5039913;28;20101;-87
2022/05/25 13:35:35;;;;;;;0.05;0.05;;;;;;;;;;5056405;28;20090;-86
2022/05/25 13:38:11;;;;;;;0.10;0.10;;;;;;;;;;5039750;28;20129;-88
2022/05/25 13:41:00;;;;;;;0.00;0.00;;;;;;;;;;5055475;28;20036;-91
2022/05/25 13:43:45;;;;;;;0.00;0.00;;;;;;;;;;5019703;28;20053;-91
2022/05/25 13:46:13;;;;;;;0.10;0.10;;;;;;;;;;5059597;28;20463;-94
2022/05/25 13:48:51;;;;;;;0.10;0.10;;;;;;;;;;5034000;28;20132;-87
2022/05/25 13:51:19;;;;;;;0.00;0.00;;;;;;;;;;5039424;28;20037;-88
2022/05/25 13:53:46;;;;;;;0.10;0.10;;;;;;;;;;5041893;28;20094;-87
2022/05/25 13:56:13;;;;;;;0.13;0.13;;;;;;;;;;5042005;28;20611;-88
2022/05/25 13:58:47;;;;;;;0.00;0.00;;;;;;;;;;5045285;28;20036;-87
2022/05/25 14:01:21;;;;;;;0.10;0.10;;;;;;;;;;5057076;28;20503;-88
2022/05/25 14:03:50;;;;;;;0.00;0.00;;;;;;;;;;5047028;28;20048;-89
2022/05/25 14:06:16;;;;;;;0.00;0.00;;;;;;;;;;5046214;28;20041;-89
2022/05/25 14:11:42;;;;;;;0.10;0.10;;;;;;;;;;5056341;28;20536;-88
2022/05/25 14:14:17;;;;;;;0.00;0.00;;;;;;;;;;5043818;28;20033;-88
2022/05/25 14:16:48;;;;;;;0.00;0.00;;;;;;;;;;5043815;28;20040;-88
2022/05/25 14:19:19;;;;;;;0.00;0.00;;;;;;;;;;5043451;28;20039;-88
2022/05/25 14:21:50;;;;;;;0.10;0.10;;;;;;;;;;5043224;28;20094;-87
2022/05/25 14:24:18;;;;;;;0.00;0.00;;;;;;;;;;5042875;28;20051;-88
2022/05/25 14:26:54;;;;;;;0.00;0.00;;;;;;;;;;5043026;28;20044;-87
2022/05/25 14:29:24;;;;;;;0.10;0.10;;;;;;;;;;5043071;28;20078;-86
2022/05/25 14:31:53;;;;;;;0.20;0.20;;;;;;;;;;5044247;28;20044;-86
2022/05/25 14:34:31;;;;;;;0.03;0.03;;;;;;;;;;5047979;28;20074;-90
2022/05/25 14:36:58;;;;;;;0.08;0.08;;;;;;;;;;5035592;28;20033;-89
2022/05/25 14:39:29;;;;;;;0.00;0.00;;;;;;;;;;5038906;28;20039;-88
2022/05/25 14:42:04;;;;;;;0.08;0.08;;;;;;;;;;5061925;28;20044;-89
2022/05/25 14:44:39;;;;;;;0.10;0.10;;;;;;;;;;5039985;28;20128;-87
2022/05/25 14:47:24;;;;;;;0.00;0.00;;;;;;;;;;5035918;28;20103;-89
2022/05/25 14:49:55;;;;;;;0.00;0.00;;;;;;;;;;5042303;28;20146;-89
2022/05/25 14:52:22;;;;;;;0.10;0.10;;;;;;;;;;5031813;28;20052;-89
2022/05/25 14:54:48;;;;;;;0.05;0.05;;;;;;;;;;5044778;28;20382;-88
2022/05/25 14:57:18;;;;;;;0.00;0.00;;;;;;;;;;5057319;28;20028;-90
2022/05/25 14:59:49;;;;;;;0.03;0.03;;;;;;;;;;5042819;28;20036;-88
2022/05/25 15:02:42;;;;;;;0.00;0.00;;;;;;;;;;5038200;28;20064;-91
2022/05/25 15:05:27;;;;;;;0.10;0.10;;;;;;;;;;5027172;28;20084;-90
2022/05/25 15:07:54;;;;;;;0.00;0.00;;;;;;;;;;5049153;28;20048;-92
2022/05/25 15:10:20;;;;;;;0.10;0.10;;;;;;;;;;5045696;28;20044;-91
2022/05/25 15:12:47;;;;;;;0.10;0.10;;;;;;;;;;5041751;28;20041;-92
2022/05/25 15:18:30;;;;;;;0.00;0.00;;;;;;;;;;5068722;28;20044;-91
2022/05/25 15:21:18;;;;;;;0.10;0.10;;;;;;;;;;5050216;28;20138;-93
2022/05/25 15:23:53;;;;;;;0.00;0.00;;;;;;;;;;5034590;28;20437;-93
2022/05/25 15:26:19;;;;;;;;;;;;;;;;;;5035582;28;20592;-91
2022/05/25 15:28:46;;;;;;;0.10;0.10;;;;;;;;;;5046043;28;19923;-94
2022/05/25 15:31:16;;;;;;;0.10;0.10;;;;;;;;;;5065145;28;20227;-94
2022/05/25 15:33:45;;;;;;;0.00;0.00;;;;;;;;;;5042589;28;20049;-93
2022/05/25 15:36:12;;;;;;;0.10;0.10;;;;;;;;;;5065286;28;20041;-94
2022/05/25 15:38:39;;;;;;;0.10;0.10;;;;;;;;;;5051641;28;20032;-94
2022/05/25 15:41:06;;;;;;;0.10;0.10;;;;;;;;;;5030630;28;20047;-93
2022/05/25 15:43:33;;;;;;;0.10;0.10;;;;;;;;;;5047460;28;20089;-94